createdAt,value
2018-06-02T00:00:21.675Z,0
2018-06-02T00:01:21.732Z,0
2018-06-02T00:02:21.666Z,0
2018-06-02T00:03:21.736Z,0
2018-06-02T00:04:21.666Z,0
2018-06-02T00:05:21.826Z,0
2018-06-02T00:06:21.733Z,0
2018-06-02T00:07:21.668Z,0
2018-06-02T00:08:21.774Z,0
2018-06-02T00:09:21.707Z,0
2018-06-02T00:10:21.706Z,0
2018-06-02T00:11:21.818Z,0
2018-06-02T00:12:21.664Z,0
2018-06-02T00:13:21.710Z,0
2018-06-02T00:14:21.723Z,0
2018-06-02T00:15:21.775Z,0
2018-06-02T00:16:21.753Z,0
2018-06-02T00:17:21.757Z,0
2018-06-02T00:18:21.683Z,0
2018-06-02T00:19:21.681Z,0
2018-06-02T00:20:21.679Z,0
2018-06-02T00:21:21.750Z,0
2018-06-02T00:22:21.683Z,0
2018-06-02T00:23:21.686Z,0
2018-06-02T00:24:21.687Z,0
2018-06-02T00:25:21.684Z,0
2018-06-02T00:26:21.690Z,0
2018-06-02T00:27:21.684Z,0
2018-06-02T00:28:21.686Z,0
2018-06-02T00:29:21.684Z,0
2018-06-02T00:30:21.750Z,0
2018-06-02T00:31:21.678Z,0
2018-06-02T00:32:21.752Z,0
2018-06-02T00:33:21.693Z,0
2018-06-02T00:34:21.751Z,0
2018-06-02T00:35:21.682Z,0
2018-06-02T00:36:21.678Z,0
2018-06-02T00:37:21.757Z,0
2018-06-02T00:38:21.687Z,0
2018-06-02T00:39:21.692Z,0
2018-06-02T00:40:21.694Z,0
2018-06-02T00:41:21.695Z,0
2018-06-02T00:42:21.773Z,0
2018-06-02T00:43:21.776Z,0
2018-06-02T00:44:21.696Z,0
2018-06-02T00:45:21.828Z,0
2018-06-02T00:46:21.773Z,0
2018-06-02T00:47:21.703Z,0
2018-06-02T00:48:21.793Z,0
2018-06-02T00:49:21.685Z,0
2018-06-02T00:50:21.754Z,0
2018-06-02T00:51:21.812Z,0
2018-06-02T00:52:21.697Z,0
2018-06-02T00:53:21.807Z,0
2018-06-02T00:54:21.715Z,0
2018-06-02T00:55:21.793Z,0
2018-06-02T00:56:21.799Z,0
2018-06-02T00:57:21.792Z,0
2018-06-02T00:58:21.786Z,0
2018-06-02T00:59:21.714Z,0
2018-06-02T01:00:21.737Z,0
2018-06-02T01:01:21.817Z,0
2018-06-02T01:02:21.754Z,0
2018-06-02T01:03:21.812Z,0
2018-06-02T01:04:21.807Z,0
2018-06-02T01:05:21.801Z,0
2018-06-02T01:06:21.789Z,0
2018-06-02T01:07:21.821Z,0
2018-06-02T01:08:21.719Z,0
2018-06-02T01:09:21.703Z,0
2018-06-02T01:10:21.705Z,0
2018-06-02T01:11:21.761Z,0
2018-06-02T01:12:21.806Z,0
2018-06-02T01:13:21.761Z,0
2018-06-02T01:14:21.706Z,0
2018-06-02T01:15:21.796Z,0
2018-06-02T01:16:21.825Z,0
2018-06-02T01:17:21.824Z,0
2018-06-02T01:18:21.855Z,0
2018-06-02T01:19:21.781Z,0
2018-06-02T01:20:21.756Z,0
2018-06-02T01:21:21.723Z,0
2018-06-02T01:22:21.693Z,0
2018-06-02T01:23:21.800Z,0
2018-06-02T01:24:21.798Z,0
2018-06-02T01:25:21.729Z,0
2018-06-02T01:26:21.797Z,0
2018-06-02T01:27:21.691Z,0
2018-06-02T01:28:21.753Z,0
2018-06-02T01:29:21.803Z,0
2018-06-02T01:30:21.738Z,0
2018-06-02T01:31:21.772Z,0
2018-06-02T01:32:21.725Z,0
2018-06-02T01:33:21.758Z,0
2018-06-02T01:34:21.721Z,0
2018-06-02T01:35:21.815Z,0
2018-06-02T01:36:21.771Z,0
2018-06-02T01:37:21.727Z,0
2018-06-02T01:38:21.722Z,0
2018-06-02T01:39:21.770Z,0
2018-06-02T01:40:21.743Z,0
2018-06-02T01:41:21.817Z,0
2018-06-02T01:42:21.806Z,0
2018-06-02T01:43:21.829Z,0
2018-06-02T01:44:21.744Z,0
2018-06-02T01:45:21.734Z,0
2018-06-02T01:46:21.896Z,0
2018-06-02T01:47:21.806Z,0
2018-06-02T01:48:21.804Z,0
2018-06-02T01:49:21.711Z,0
2018-06-02T01:50:21.835Z,0
2018-06-02T01:51:21.775Z,0
2018-06-02T01:52:21.746Z,0
2018-06-02T01:53:21.820Z,0
2018-06-02T01:54:21.737Z,0
2018-06-02T01:55:21.823Z,0
2018-06-02T01:56:21.771Z,0
2018-06-02T01:57:21.815Z,0
2018-06-02T01:58:21.829Z,0
2018-06-02T01:59:21.845Z,0
2018-06-02T02:00:21.810Z,0
2018-06-02T02:01:21.752Z,0
2018-06-02T02:02:21.767Z,0
2018-06-02T02:03:21.831Z,0
2018-06-02T02:04:21.749Z,0
2018-06-02T02:05:21.756Z,0
2018-06-02T02:06:21.767Z,0
2018-06-02T02:07:21.831Z,0
2018-06-02T02:08:21.715Z,0
2018-06-02T02:09:21.739Z,0
2018-06-02T02:10:21.721Z,0
2018-06-02T02:11:21.745Z,0
2018-06-02T02:12:21.755Z,0
2018-06-02T02:13:21.832Z,0
2018-06-02T02:14:21.831Z,0
2018-06-02T02:15:21.859Z,0
2018-06-02T02:16:21.764Z,0
2018-06-02T02:17:21.790Z,0
2018-06-02T02:18:21.749Z,0
2018-06-02T02:19:21.775Z,0
2018-06-02T02:20:21.855Z,0
2018-06-02T02:21:21.867Z,0
2018-06-02T02:22:21.796Z,0
2018-06-02T02:23:21.829Z,0
2018-06-02T02:24:21.830Z,0
2018-06-02T02:25:21.841Z,0
2018-06-02T02:26:21.809Z,0
2018-06-02T02:27:21.795Z,0
2018-06-02T02:28:21.804Z,0
2018-06-02T02:29:26.202Z,0
2018-06-02T02:30:21.820Z,0
2018-06-02T02:31:21.846Z,0
2018-06-02T02:32:21.808Z,0
2018-06-02T02:33:21.861Z,0
2018-06-02T02:34:21.779Z,0
2018-06-02T02:35:21.782Z,0
2018-06-02T02:36:21.782Z,0
2018-06-02T02:37:21.870Z,0
2018-06-02T02:38:21.814Z,0
2018-06-02T02:39:21.774Z,0
2018-06-02T02:40:21.778Z,0
2018-06-02T02:41:21.734Z,0
2018-06-02T02:42:21.775Z,0
2018-06-02T02:43:21.860Z,0
2018-06-02T02:44:21.783Z,0
2018-06-02T02:45:21.868Z,0
2018-06-02T02:46:21.854Z,0
2018-06-02T02:47:21.783Z,0
2018-06-02T02:48:21.853Z,0
2018-06-02T02:49:21.778Z,0
2018-06-02T02:50:21.780Z,0
2018-06-02T02:51:21.854Z,0
2018-06-02T02:52:21.857Z,0
2018-06-02T02:53:21.782Z,0
2018-06-02T02:54:21.857Z,0
2018-06-02T02:55:21.855Z,0
2018-06-02T02:56:21.782Z,0
2018-06-02T02:57:21.854Z,0
2018-06-02T02:58:21.867Z,0
2018-06-02T02:59:21.887Z,0
2018-06-02T03:00:21.888Z,0
2018-06-02T03:01:21.858Z,0
2018-06-02T03:02:21.825Z,0
2018-06-02T03:03:21.915Z,0
2018-06-02T03:04:21.867Z,0
2018-06-02T03:05:21.842Z,0
2018-06-02T03:06:21.884Z,0
2018-06-02T03:07:21.901Z,0
2018-06-02T03:08:21.897Z,0
2018-06-02T03:09:21.880Z,0
2018-06-02T03:10:21.797Z,0
2018-06-02T03:11:21.752Z,0
2018-06-02T03:12:21.809Z,5
2018-06-02T03:13:21.824Z,5
2018-06-02T03:14:21.869Z,5
2018-06-02T03:15:21.798Z,5
2018-06-02T03:16:21.870Z,5
2018-06-02T03:17:21.800Z,5
2018-06-02T03:18:21.872Z,5
2018-06-02T03:19:21.793Z,5
2018-06-02T03:20:21.842Z,5
2018-06-02T03:21:21.911Z,5
2018-06-02T03:22:21.905Z,5
2018-06-02T03:24:21.887Z,11
2018-06-02T03:25:21.902Z,11
2018-06-02T03:26:21.778Z,11
2018-06-02T03:27:21.870Z,11
2018-06-02T03:28:21.800Z,11
2018-06-02T03:29:21.898Z,11
2018-06-02T03:30:21.880Z,16
2018-06-02T03:31:21.806Z,16
2018-06-02T03:32:21.866Z,22
2018-06-02T03:33:21.809Z,22
2018-06-02T03:34:21.883Z,22
2018-06-02T03:35:21.883Z,22
2018-06-02T03:36:21.885Z,28
2018-06-02T03:37:21.812Z,28
2018-06-02T03:38:21.815Z,28
2018-06-02T03:39:21.879Z,28
2018-06-02T03:40:21.787Z,28
2018-06-02T03:41:21.921Z,28
2018-06-02T03:42:21.858Z,28
2018-06-02T03:43:21.895Z,33
2018-06-02T03:44:21.906Z,33
2018-06-02T03:45:21.807Z,33
2018-06-02T03:46:21.922Z,39
2018-06-02T03:47:21.868Z,39
2018-06-02T03:48:21.860Z,45
2018-06-02T03:49:21.910Z,45
2018-06-02T03:50:21.850Z,50
2018-06-02T03:51:21.822Z,56
2018-06-02T03:52:21.820Z,61
2018-06-02T03:53:21.896Z,67
2018-06-02T03:54:21.827Z,67
2018-06-02T03:55:21.828Z,67
2018-06-02T03:56:21.895Z,67
2018-06-02T03:57:21.901Z,73
2018-06-02T03:58:21.825Z,78
2018-06-02T03:59:21.830Z,90
2018-06-02T04:00:21.878Z,95
2018-06-02T04:01:21.879Z,95
2018-06-02T04:02:21.831Z,101
2018-06-02T04:03:21.821Z,118
2018-06-02T04:04:21.887Z,129
2018-06-02T04:05:21.826Z,129
2018-06-02T04:06:21.878Z,118
2018-06-02T04:07:21.872Z,118
2018-06-02T04:08:21.796Z,129
2018-06-02T04:09:21.900Z,135
2018-06-02T04:10:21.874Z,140
2018-06-02T04:11:21.897Z,140
2018-06-02T04:12:21.845Z,135
2018-06-02T04:13:21.954Z,123
2018-06-02T04:14:21.840Z,135
2018-06-02T04:15:21.843Z,135
2018-06-02T04:16:21.825Z,123
2018-06-02T04:17:21.810Z,123
2018-06-02T04:18:21.885Z,123
2018-06-02T04:19:21.932Z,123
2018-06-02T04:20:21.839Z,135
2018-06-02T04:21:21.923Z,157
2018-06-02T04:22:21.910Z,157
2018-06-02T04:23:21.909Z,157
2018-06-02T04:24:21.840Z,163
2018-06-02T04:25:21.910Z,168
2018-06-02T04:26:21.843Z,174
2018-06-02T04:27:21.910Z,157
2018-06-02T04:28:21.846Z,174
2018-06-02T04:29:21.906Z,168
2018-06-02T04:30:21.830Z,163
2018-06-02T04:31:21.900Z,157
2018-06-02T04:32:21.820Z,151
2018-06-02T04:33:21.822Z,157
2018-06-02T04:34:21.834Z,168
2018-06-02T04:35:21.821Z,163
2018-06-02T04:36:21.909Z,163
2018-06-02T04:37:21.909Z,174
2018-06-02T04:38:21.926Z,174
2018-06-02T04:39:21.893Z,180
2018-06-02T04:40:21.925Z,163
2018-06-02T04:41:21.979Z,151
2018-06-02T04:42:21.942Z,146
2018-06-02T04:43:21.891Z,151
2018-06-02T04:44:21.947Z,151
2018-06-02T04:45:21.904Z,157
2018-06-02T04:46:21.941Z,163
2018-06-02T04:47:21.894Z,180
2018-06-02T04:48:21.894Z,185
2018-06-02T04:49:21.906Z,180
2018-06-02T04:50:21.924Z,168
2018-06-02T04:51:21.960Z,157
2018-06-02T04:52:21.850Z,135
2018-06-02T04:53:21.874Z,135
2018-06-02T04:54:21.963Z,135
2018-06-02T04:55:21.849Z,129
2018-06-02T04:56:21.894Z,123
2018-06-02T04:57:21.931Z,135
2018-06-02T04:58:21.990Z,129
2018-06-02T04:59:21.849Z,118
2018-06-02T05:00:21.877Z,118
2018-06-02T05:01:21.910Z,118
2018-06-02T05:02:21.838Z,118
2018-06-02T05:03:21.964Z,123
2018-06-02T05:04:21.864Z,123
2018-06-02T05:05:21.877Z,112
2018-06-02T05:06:21.941Z,106
2018-06-02T05:07:21.839Z,101
2018-06-02T05:08:21.966Z,101
2018-06-02T05:09:21.877Z,106
2018-06-02T05:10:21.941Z,112
2018-06-02T05:11:21.876Z,135
2018-06-02T05:12:21.943Z,174
2018-06-02T05:13:21.944Z,213
2018-06-02T05:14:21.947Z,225
2018-06-02T05:15:21.878Z,225
2018-06-02T05:16:21.947Z,213
2018-06-02T05:17:21.950Z,191
2018-06-02T05:18:21.879Z,174
2018-06-02T05:19:21.890Z,174
2018-06-02T05:20:21.947Z,168
2018-06-02T05:21:21.949Z,180
2018-06-02T05:22:21.950Z,191
2018-06-02T05:23:21.983Z,208
2018-06-02T05:24:21.955Z,213
2018-06-02T05:25:21.952Z,225
2018-06-02T05:26:21.890Z,247
2018-06-02T05:27:21.954Z,264
2018-06-02T05:28:21.890Z,253
2018-06-02T05:29:21.884Z,247
2018-06-02T05:30:21.958Z,253
2018-06-02T05:31:21.900Z,264
2018-06-02T05:32:21.981Z,258
2018-06-02T05:33:21.911Z,258
2018-06-02T05:34:21.959Z,253
2018-06-02T05:35:22.002Z,258
2018-06-02T05:36:21.960Z,247
2018-06-02T05:37:21.894Z,247
2018-06-02T05:38:21.969Z,258
2018-06-02T05:39:21.962Z,247
2018-06-02T05:40:21.961Z,264
2018-06-02T05:41:21.972Z,286
2018-06-02T05:42:21.996Z,309
2018-06-02T05:43:21.937Z,331
2018-06-02T05:44:21.930Z,343
2018-06-02T05:45:21.947Z,343
2018-06-02T05:46:21.923Z,337
2018-06-02T05:47:21.930Z,348
2018-06-02T05:48:21.893Z,382
2018-06-02T05:49:21.965Z,376
2018-06-02T05:50:21.974Z,393
2018-06-02T05:51:21.978Z,416
2018-06-02T05:52:21.998Z,421
2018-06-02T05:53:21.968Z,433
2018-06-02T05:54:21.973Z,438
2018-06-02T05:55:21.947Z,444
2018-06-02T05:56:21.925Z,410
2018-06-02T05:57:21.953Z,388
2018-06-02T05:58:21.974Z,348
2018-06-02T05:59:21.989Z,315
2018-06-02T06:00:21.894Z,309
2018-06-02T06:01:22.000Z,320
2018-06-02T06:02:21.974Z,309
2018-06-02T06:03:21.883Z,281
2018-06-02T06:04:22.008Z,264
2018-06-02T06:05:21.997Z,258
2018-06-02T06:06:21.975Z,258
2018-06-02T06:07:22.000Z,258
2018-06-02T06:08:21.949Z,270
2018-06-02T06:09:21.900Z,270
2018-06-02T06:10:22.011Z,286
2018-06-02T06:11:21.935Z,303
2018-06-02T06:12:21.899Z,320
2018-06-02T06:13:21.981Z,326
2018-06-02T06:14:21.964Z,326
2018-06-02T06:15:21.958Z,331
2018-06-02T06:16:22.002Z,343
2018-06-02T06:17:21.967Z,382
2018-06-02T06:18:21.984Z,382
2018-06-02T06:19:21.925Z,466
2018-06-02T06:20:21.986Z,556
2018-06-02T06:21:21.989Z,635
2018-06-02T06:22:21.929Z,596
2018-06-02T06:23:21.924Z,517
2018-06-02T06:24:21.923Z,500
2018-06-02T06:25:21.923Z,483
2018-06-02T06:26:21.963Z,478
2018-06-02T06:27:21.947Z,500
2018-06-02T06:28:21.923Z,461
2018-06-02T06:29:21.995Z,455
2018-06-02T06:30:21.912Z,450
2018-06-02T06:31:21.941Z,444
2018-06-02T06:32:21.922Z,450
2018-06-02T06:33:22.067Z,410
2018-06-02T06:34:21.991Z,427
2018-06-02T06:35:21.917Z,438
2018-06-02T06:36:21.873Z,421
2018-06-02T06:37:21.989Z,416
2018-06-02T06:38:21.902Z,433
2018-06-02T06:39:21.947Z,472
2018-06-02T06:40:22.028Z,444
2018-06-02T06:41:22.023Z,450
2018-06-02T06:42:22.024Z,461
2018-06-02T06:43:22.043Z,495
2018-06-02T06:44:22.056Z,506
2018-06-02T06:45:21.982Z,472
2018-06-02T06:46:22.004Z,416
2018-06-02T06:47:21.945Z,399
2018-06-02T06:48:21.957Z,427
2018-06-02T06:49:22.025Z,433
2018-06-02T06:50:21.915Z,450
2018-06-02T06:51:21.989Z,455
2018-06-02T06:52:22.014Z,444
2018-06-02T06:53:22.039Z,433
2018-06-02T06:54:22.007Z,427
2018-06-02T06:55:22.019Z,433
2018-06-02T06:56:22.106Z,416
2018-06-02T06:57:21.988Z,427
2018-06-02T06:58:21.982Z,427
2018-06-02T06:59:22.013Z,466
2018-06-02T07:00:21.946Z,545
2018-06-02T07:01:22.017Z,540
2018-06-02T07:02:21.950Z,489
2018-06-02T07:03:21.951Z,466
2018-06-02T07:04:21.901Z,478
2018-06-02T07:05:21.952Z,500
2018-06-02T07:06:22.016Z,495
2018-06-02T07:07:21.973Z,483
2018-06-02T07:08:22.023Z,495
2018-06-02T07:09:21.983Z,517
2018-06-02T07:10:21.947Z,489
2018-06-02T07:11:22.084Z,466
2018-06-02T07:12:21.983Z,478
2018-06-02T07:13:22.065Z,495
2018-06-02T07:14:22.062Z,545
2018-06-02T07:15:22.004Z,618
2018-06-02T07:16:22.064Z,618
2018-06-02T07:17:22.005Z,641
2018-06-02T07:18:21.945Z,675
2018-06-02T07:19:22.010Z,798
2018-06-02T07:20:22.059Z,866
2018-06-02T07:21:21.992Z,956
2018-06-02T07:22:22.074Z,973
2018-06-02T07:23:22.027Z,995
2018-06-02T07:24:22.013Z,1063
2018-06-02T07:25:21.938Z,1293
2018-06-02T07:26:22.060Z,1552
2018-06-02T07:27:22.034Z,1625
2018-06-02T07:28:22.054Z,1535
2018-06-02T07:29:22.033Z,1479
2018-06-02T07:30:21.976Z,1440
2018-06-02T07:31:22.064Z,1299
2018-06-02T07:32:22.065Z,1192
2018-06-02T07:33:21.952Z,1125
2018-06-02T07:34:22.079Z,1023
2018-06-02T07:35:22.063Z,928
2018-06-02T07:36:21.956Z,821
2018-06-02T07:37:21.979Z,708
2018-06-02T07:38:21.941Z,641
2018-06-02T07:39:22.059Z,607
2018-06-02T07:40:22.059Z,613
2018-06-02T07:41:21.975Z,585
2018-06-02T07:42:21.979Z,534
2018-06-02T07:43:22.045Z,506
2018-06-02T07:44:22.067Z,483
2018-06-02T07:45:22.046Z,495
2018-06-02T07:46:21.977Z,517
2018-06-02T07:47:22.049Z,500
2018-06-02T07:48:22.047Z,506
2018-06-02T07:49:22.049Z,540
2018-06-02T07:50:22.049Z,551
2018-06-02T07:51:22.051Z,556
2018-06-02T07:52:22.049Z,568
2018-06-02T07:53:21.983Z,641
2018-06-02T07:54:22.052Z,810
2018-06-02T07:55:22.057Z,1063
2018-06-02T07:56:21.980Z,1203
2018-06-02T07:57:21.950Z,1333
2018-06-02T07:58:21.983Z,1288
2018-06-02T07:59:22.094Z,1220
2018-06-02T08:00:22.054Z,1170
2018-06-02T08:01:22.030Z,1136
2018-06-02T08:02:22.059Z,1108
2018-06-02T08:03:22.057Z,1130
2018-06-02T08:04:21.988Z,1181
2018-06-02T08:05:22.065Z,1186
2018-06-02T08:06:22.061Z,1164
2018-06-02T08:07:22.064Z,1186
2018-06-02T08:08:22.000Z,1220
2018-06-02T08:09:22.061Z,1248
2018-06-02T08:10:21.970Z,1243
2018-06-02T08:11:22.055Z,1260
2018-06-02T08:12:21.986Z,1321
2018-06-02T08:13:22.058Z,1338
2018-06-02T08:14:22.057Z,1305
2018-06-02T08:15:22.056Z,1271
2018-06-02T08:16:22.064Z,1181
2018-06-02T08:17:22.065Z,1074
2018-06-02T08:18:21.987Z,1046
2018-06-02T08:19:22.064Z,1063
2018-06-02T08:20:22.070Z,1119
2018-06-02T08:21:22.044Z,1147
2018-06-02T08:22:22.047Z,1158
2018-06-02T08:23:22.128Z,1265
2018-06-02T08:24:22.105Z,1423
2018-06-02T08:25:22.070Z,1586
2018-06-02T08:26:22.042Z,1687
2018-06-02T08:27:22.008Z,1929
2018-06-02T08:28:22.079Z,2115
2018-06-02T08:29:22.010Z,2081
2018-06-02T08:30:22.110Z,1867
2018-06-02T08:31:22.011Z,1603
2018-06-02T08:32:22.077Z,1501
2018-06-02T08:33:22.126Z,1524
2018-06-02T08:34:22.108Z,1485
2018-06-02T08:35:22.075Z,1321
2018-06-02T08:36:22.059Z,1226
2018-06-02T08:37:22.079Z,1192
2018-06-02T08:38:22.049Z,1192
2018-06-02T08:39:21.999Z,1276
2018-06-02T08:40:22.082Z,1395
2018-06-02T08:41:22.015Z,1552
2018-06-02T08:42:22.082Z,1710
2018-06-02T08:43:22.018Z,1743
2018-06-02T08:44:22.084Z,1620
2018-06-02T08:45:22.018Z,1507
2018-06-02T08:46:22.158Z,1496
2018-06-02T08:47:22.033Z,1603
2018-06-02T08:48:22.089Z,1659
2018-06-02T08:49:22.019Z,1575
2018-06-02T08:50:22.018Z,1479
2018-06-02T08:51:22.110Z,1473
2018-06-02T08:52:22.111Z,1507
2018-06-02T08:53:22.026Z,1631
2018-06-02T08:54:22.136Z,1777
2018-06-02T08:55:22.060Z,1659
2018-06-02T08:56:22.027Z,1473
2018-06-02T08:57:22.110Z,1428
2018-06-02T08:58:22.112Z,1428
2018-06-02T08:59:22.095Z,1445
2018-06-02T09:00:22.120Z,1428
2018-06-02T09:01:22.031Z,1350
2018-06-02T09:02:21.996Z,1271
2018-06-02T09:03:22.036Z,1220
2018-06-02T09:04:22.089Z,1136
2018-06-02T09:05:22.106Z,1085
2018-06-02T09:06:22.018Z,1130
2018-06-02T09:07:22.053Z,1215
2018-06-02T09:08:21.976Z,1254
2018-06-02T09:09:22.030Z,1310
2018-06-02T09:10:22.077Z,1299
2018-06-02T09:11:22.082Z,1237
2018-06-02T09:12:22.084Z,1203
2018-06-02T09:13:22.042Z,1181
2018-06-02T09:14:22.081Z,1136
2018-06-02T09:15:22.065Z,1063
2018-06-02T09:16:22.143Z,1040
2018-06-02T09:17:22.104Z,1108
2018-06-02T09:18:22.105Z,1170
2018-06-02T09:19:22.008Z,1198
2018-06-02T09:20:22.033Z,1243
2018-06-02T09:21:22.143Z,1215
2018-06-02T09:22:22.108Z,1181
2018-06-02T09:23:22.068Z,1091
2018-06-02T09:24:22.142Z,984
2018-06-02T09:25:22.129Z,956
2018-06-02T09:26:22.081Z,990
2018-06-02T09:27:22.142Z,1068
2018-06-02T09:28:22.016Z,1209
2018-06-02T09:29:22.113Z,1378
2018-06-02T09:30:22.107Z,1485
2018-06-02T09:31:22.015Z,1479
2018-06-02T09:32:22.113Z,1552
2018-06-02T09:33:22.092Z,1721
2018-06-02T09:34:22.165Z,1867
2018-06-02T09:35:22.126Z,2025
2018-06-02T09:36:22.117Z,2199
2018-06-02T09:37:22.080Z,2525
2018-06-02T09:38:22.122Z,2778
2018-06-02T09:39:22.026Z,2818
2018-06-02T09:40:22.024Z,2649
2018-06-02T09:41:22.040Z,2441
2018-06-02T09:42:22.115Z,2525
2018-06-02T09:43:22.080Z,2655
2018-06-02T09:44:22.112Z,2638
2018-06-02T09:45:22.066Z,2868
2018-06-02T09:46:22.115Z,2896
2018-06-02T09:47:22.117Z,2705
2018-06-02T09:48:22.030Z,2604
2018-06-02T09:49:22.036Z,2778
2018-06-02T09:50:22.074Z,2902
2018-06-02T09:51:22.035Z,2975
2018-06-02T09:52:22.074Z,3105
2018-06-02T09:53:22.073Z,3358
2018-06-02T09:54:22.052Z,3273
2018-06-02T09:55:22.058Z,3285
2018-06-02T09:56:22.119Z,3408
2018-06-02T09:57:22.126Z,3228
2018-06-02T09:58:22.051Z,2778
2018-06-02T09:59:22.075Z,2205
2018-06-02T10:00:22.132Z,2182
2018-06-02T10:01:22.075Z,2351
2018-06-02T10:02:22.112Z,2227
2018-06-02T10:03:22.169Z,1873
2018-06-02T10:04:22.108Z,1861
2018-06-02T10:05:22.112Z,2036
2018-06-02T10:06:22.134Z,2199
2018-06-02T10:07:22.115Z,2283
2018-06-02T10:08:22.137Z,2103
2018-06-02T10:09:22.167Z,1867
2018-06-02T10:10:22.171Z,1777
2018-06-02T10:11:22.138Z,1963
2018-06-02T10:12:22.063Z,2154
2018-06-02T10:13:22.138Z,2210
2018-06-02T10:14:22.146Z,2115
2018-06-02T10:15:22.141Z,2053
2018-06-02T10:16:22.129Z,1906
2018-06-02T10:17:22.048Z,1991
2018-06-02T10:18:22.207Z,2120
2018-06-02T10:19:22.083Z,1946
2018-06-02T10:20:22.187Z,1743
2018-06-02T10:21:22.174Z,1693
2018-06-02T10:22:22.111Z,1726
2018-06-02T10:23:22.176Z,1878
2018-06-02T10:24:22.114Z,1968
2018-06-02T10:25:22.070Z,1957
2018-06-02T10:26:22.152Z,1777
2018-06-02T10:27:22.176Z,1648
2018-06-02T10:28:22.091Z,1670
2018-06-02T10:29:22.094Z,1766
2018-06-02T10:30:22.127Z,1861
2018-06-02T10:31:22.180Z,1946
2018-06-02T10:32:22.213Z,2064
2018-06-02T10:33:22.189Z,2193
2018-06-02T10:34:22.127Z,2227
2018-06-02T10:35:22.243Z,2300
2018-06-02T10:36:22.159Z,2385
2018-06-02T10:37:22.190Z,2435
2018-06-02T10:38:22.117Z,2418
2018-06-02T10:39:22.190Z,2362
2018-06-02T10:40:22.160Z,2328
2018-06-02T10:41:22.186Z,2418
2018-06-02T10:42:22.130Z,2491
2018-06-02T10:43:22.199Z,2576
2018-06-02T10:44:22.232Z,2643
2018-06-02T10:45:22.186Z,2733
2018-06-02T10:46:22.167Z,2868
2018-06-02T10:47:22.160Z,2857
2018-06-02T10:48:22.200Z,2643
2018-06-02T10:49:22.106Z,2548
2018-06-02T10:50:22.194Z,2463
2018-06-02T10:51:22.087Z,2323
2018-06-02T10:52:22.189Z,2098
2018-06-02T10:53:22.131Z,1946
2018-06-02T10:54:22.108Z,1822
2018-06-02T10:55:22.201Z,1659
2018-06-02T10:56:22.208Z,1490
2018-06-02T10:57:22.168Z,1321
2018-06-02T10:58:22.187Z,1170
2018-06-02T10:59:22.193Z,1018
2018-06-02T11:00:22.106Z,877
2018-06-02T11:01:22.183Z,776
2018-06-02T11:02:22.112Z,691
2018-06-02T11:03:22.109Z,624
2018-06-02T11:04:22.110Z,596
2018-06-02T11:05:22.178Z,607
2018-06-02T11:06:22.175Z,641
2018-06-02T11:07:22.177Z,675
2018-06-02T11:08:22.178Z,686
2018-06-02T11:09:22.116Z,703
2018-06-02T11:10:22.181Z,731
2018-06-02T11:11:22.170Z,815
2018-06-02T11:12:22.104Z,956
2018-06-02T11:13:22.142Z,1125
2018-06-02T11:14:22.154Z,1248
2018-06-02T11:15:22.174Z,1344
2018-06-02T11:16:22.144Z,1423
2018-06-02T11:17:22.103Z,1501
2018-06-02T11:18:22.091Z,1546
2018-06-02T11:19:22.176Z,1552
2018-06-02T11:20:22.180Z,1518
2018-06-02T11:21:22.155Z,1479
2018-06-02T11:22:22.092Z,1423
2018-06-02T11:23:22.189Z,1361
2018-06-02T11:24:22.235Z,1305
2018-06-02T11:25:22.092Z,1260
2018-06-02T11:26:22.190Z,1209
2018-06-02T11:27:22.229Z,1181
2018-06-02T11:28:22.203Z,1170
2018-06-02T11:29:22.223Z,1158
2018-06-02T11:30:22.194Z,1141
2018-06-02T11:31:22.224Z,1141
2018-06-02T11:32:22.234Z,1158
2018-06-02T11:33:22.169Z,1164
2018-06-02T11:34:22.192Z,1170
2018-06-02T11:35:22.228Z,1164
2018-06-02T11:36:22.166Z,1175
2018-06-02T11:37:22.218Z,1181
2018-06-02T11:38:22.118Z,1125
2018-06-02T11:39:22.163Z,1035
2018-06-02T11:40:22.258Z,933
2018-06-02T11:41:22.135Z,860
2018-06-02T11:42:22.134Z,815
2018-06-02T11:43:22.140Z,776
2018-06-02T11:44:22.298Z,731
2018-06-02T11:45:22.222Z,680
2018-06-02T11:46:22.219Z,635
2018-06-02T11:47:22.138Z,596
2018-06-02T11:48:22.137Z,579
2018-06-02T11:49:22.144Z,568
2018-06-02T11:50:22.209Z,568
2018-06-02T11:51:22.213Z,585
2018-06-02T11:52:22.133Z,613
2018-06-02T11:53:22.132Z,641
2018-06-02T11:54:22.174Z,652
2018-06-02T11:55:22.165Z,669
2018-06-02T11:56:22.273Z,686
2018-06-02T11:57:22.207Z,708
2018-06-02T11:58:22.246Z,742
2018-06-02T11:59:22.215Z,776
2018-06-02T12:00:22.114Z,832
2018-06-02T12:01:22.233Z,911
2018-06-02T12:02:22.187Z,1012
2018-06-02T12:03:22.236Z,1113
2018-06-02T12:04:22.125Z,1243
2018-06-02T12:05:22.257Z,1383
2018-06-02T12:06:22.192Z,1518
2018-06-02T12:07:22.220Z,1665
2018-06-02T12:08:22.281Z,1816
2018-06-02T12:09:22.142Z,1974
2018-06-02T12:10:22.218Z,2126
2018-06-02T12:11:22.260Z,2120
2018-06-02T12:12:22.256Z,2092
2018-06-02T12:13:22.186Z,2081
2018-06-02T12:14:22.141Z,2109
2018-06-02T12:15:22.262Z,2131
2018-06-02T12:16:22.232Z,2160
2018-06-02T12:17:22.152Z,2148
2018-06-02T12:18:22.227Z,2098
2018-06-02T12:19:22.248Z,2013
2018-06-02T12:20:22.248Z,1895
2018-06-02T12:21:22.253Z,1771
2018-06-02T12:22:22.149Z,1631
2018-06-02T12:23:22.170Z,1490
2018-06-02T12:24:22.198Z,1316
2018-06-02T12:25:22.228Z,1136
2018-06-02T12:26:22.199Z,956
2018-06-02T12:27:22.237Z,826
2018-06-02T12:28:22.293Z,708
2018-06-02T12:29:22.253Z,585
2018-06-02T12:30:22.221Z,495
2018-06-02T12:31:22.236Z,438
2018-06-02T12:32:22.235Z,410
2018-06-02T12:33:22.175Z,393
2018-06-02T12:34:22.211Z,393
2018-06-02T12:35:22.171Z,399
2018-06-02T12:36:22.240Z,393
2018-06-02T12:37:22.170Z,388
2018-06-02T12:38:22.197Z,399
2018-06-02T12:39:22.241Z,427
2018-06-02T12:40:22.175Z,472
2018-06-02T12:41:22.195Z,523
2018-06-02T12:42:22.161Z,579
2018-06-02T12:43:22.118Z,630
2018-06-02T12:44:22.163Z,675
2018-06-02T12:45:22.189Z,714
2018-06-02T12:46:22.240Z,731
2018-06-02T12:47:22.232Z,748
2018-06-02T12:48:22.285Z,748
2018-06-02T12:49:22.240Z,720
2018-06-02T12:50:22.232Z,697
2018-06-02T12:51:22.185Z,669
2018-06-02T12:52:22.147Z,641
2018-06-02T12:53:22.162Z,607
2018-06-02T12:54:22.185Z,579
2018-06-02T12:55:22.120Z,545
2018-06-02T12:56:22.189Z,528
2018-06-02T12:57:22.130Z,517
2018-06-02T12:58:22.145Z,511
2018-06-02T12:59:22.173Z,523
2018-06-02T13:00:22.153Z,579
2018-06-02T13:01:22.223Z,697
2018-06-02T13:02:22.258Z,883
2018-06-02T13:03:22.278Z,1051
2018-06-02T13:04:22.313Z,1170
2018-06-02T13:05:22.181Z,1231
2018-06-02T13:06:22.258Z,1243
2018-06-02T13:07:22.196Z,1226
2018-06-02T13:08:22.265Z,1220
2018-06-02T13:09:22.162Z,1260
2018-06-02T13:10:22.299Z,1344
2018-06-02T13:11:22.238Z,1513
2018-06-02T13:12:22.168Z,1732
2018-06-02T13:13:22.261Z,1906
2018-06-02T13:14:22.304Z,2047
2018-06-02T13:15:22.295Z,2143
2018-06-02T13:16:22.284Z,2154
2018-06-02T13:17:22.233Z,2120
2018-06-02T13:18:22.205Z,2041
2018-06-02T13:19:22.208Z,1946
2018-06-02T13:20:22.232Z,1878
2018-06-02T13:21:22.261Z,1816
2018-06-02T13:22:22.171Z,1766
2018-06-02T13:23:22.221Z,1710
2018-06-02T13:24:22.186Z,1681
2018-06-02T13:25:22.175Z,1653
2018-06-02T13:26:22.147Z,1676
2018-06-02T13:27:22.139Z,1642
2018-06-02T13:28:22.205Z,1659
2018-06-02T13:29:22.147Z,1681
2018-06-02T13:30:22.202Z,1732
2018-06-02T13:31:22.345Z,1805
2018-06-02T13:32:22.327Z,1901
2018-06-02T13:33:22.279Z,2053
2018-06-02T13:34:22.236Z,2295
2018-06-02T13:35:22.303Z,2705
2018-06-02T13:36:22.235Z,3363
2018-06-02T13:37:22.314Z,3015
2018-06-02T13:38:22.305Z,3245
2018-06-02T13:39:22.246Z,3785
2018-06-02T13:40:22.251Z,4753
2018-06-02T13:41:22.317Z,3391
2018-06-02T13:42:22.247Z,3127
2018-06-02T13:43:22.293Z,3245
2018-06-02T13:44:22.252Z,4348
2018-06-02T13:45:22.223Z,4820
2018-06-02T13:46:22.224Z,4483
2018-06-02T13:47:22.269Z,4618
2018-06-02T13:48:22.291Z,3127
2018-06-02T13:49:22.307Z,3037
2018-06-02T13:50:22.194Z,2671
2018-06-02T13:51:22.211Z,2480
2018-06-02T13:52:22.231Z,2874